createdAt,value
2023-05-10T00:01:21.888Z,96625.56
2023-05-10T00:04:07.817Z,96622.19
2023-05-10T00:06:53.742Z,96620.81
2023-05-10T00:09:39.419Z,96620.19
2023-05-10T00:12:24.893Z,96615.84
2023-05-10T00:15:10.645Z,96612.06
2023-05-10T00:17:56.273Z,96613.59
2023-05-10T00:20:41.660Z,96605.09
2023-05-10T00:23:26.978Z,96601.97
2023-05-10T00:26:12.387Z,96607.56
2023-05-10T00:28:59.599Z,96606.78
2023-05-10T00:31:44.896Z,96614.66
2023-05-10T00:34:30.285Z,96618.69
2023-05-10T00:37:15.838Z,96619.72
2023-05-10T00:40:01.262Z,96629.47
2023-05-10T00:42:46.714Z,96629.38
2023-05-10T00:45:34.062Z,96634.44
2023-05-10T00:48:19.936Z,96638.34
2023-05-10T00:51:05.970Z,96629.16
2023-05-10T00:53:52.447Z,96624.91
2023-05-10T00:56:38.845Z,96613.53
2023-05-10T00:59:24.841Z,96620.19
2023-05-10T01:02:10.172Z,96637.34
2023-05-10T01:04:56.312Z,96629.69
2023-05-10T01:07:42.572Z,96612.78
2023-05-10T01:10:28.998Z,96612.09
2023-05-10T01:13:19.865Z,96631.97
2023-05-10T01:16:07.876Z,96628.88
2023-05-10T01:18:54.039Z,96633.38
2023-05-10T01:21:46.108Z,96617.84
2023-05-10T01:24:54.898Z,96622.91
2023-05-10T01:27:59.249Z,96631.41
2023-05-10T01:30:58.098Z,96619.78
2023-05-10T01:34:06.829Z,96623.81
2023-05-10T01:37:07.196Z,96632.28
2023-05-10T01:40:04.010Z,96635.19
2023-05-10T01:42:58.178Z,96629.41
2023-05-10T01:46:11.565Z,96635.84
2023-05-10T01:49:00.454Z,96638.00
2023-05-10T01:51:49.950Z,96636.53
2023-05-10T01:54:36.847Z,96633.63
2023-05-10T01:57:28.540Z,96629.38
2023-05-10T02:00:16.029Z,96636.53
2023-05-10T02:03:06.743Z,96631.25
2023-05-10T02:05:54.791Z,96630.91
2023-05-10T02:08:42.154Z,96622.72
2023-05-10T02:11:29.331Z,96619.06
2023-05-10T02:14:16.726Z,96619.84
2023-05-10T02:17:05.371Z,96621.00
2023-05-10T02:19:53.082Z,96625.81
2023-05-10T02:22:40.222Z,96626.13
2023-05-10T02:25:26.650Z,96614.28
2023-05-10T02:28:14.175Z,96620.38
2023-05-10T02:31:00.047Z,96620.84
2023-05-10T02:33:47.912Z,96636.72
2023-05-10T02:36:34.477Z,96616.03
2023-05-10T02:39:21.461Z,96626.63
2023-05-10T02:42:07.474Z,96622.91
2023-05-10T02:44:57.658Z,96624.84
2023-05-10T02:47:44.772Z,96626.03
2023-05-10T02:50:33.479Z,96629.47
2023-05-10T02:53:26.055Z,96616.00
2023-05-10T02:56:33.125Z,96626.91
2023-05-10T02:59:18.924Z,96623.47
2023-05-10T03:02:04.911Z,96620.03
2023-05-10T03:04:50.662Z,96629.03
2023-05-10T03:07:36.903Z,96630.06
2023-05-10T03:10:27.894Z,96625.56
2023-05-10T03:13:30.062Z,96626.72
2023-05-10T03:16:29.048Z,96620.94
2023-05-10T03:19:46.746Z,96620.47
2023-05-10T03:22:36.274Z,96623.44
2023-05-10T03:25:23.954Z,96613.41
2023-05-10T03:28:13.186Z,96617.66
2023-05-10T03:31:00.729Z,96618.25
2023-05-10T03:33:49.862Z,96624.81
2023-05-10T03:36:40.405Z,96619.19
2023-05-10T03:39:26.028Z,96619.97
2023-05-10T03:42:15.577Z,96619.97
2023-05-10T03:45:00.958Z,96628.50
2023-05-10T03:47:46.351Z,96621.34
2023-05-10T03:50:32.403Z,96622.38
2023-05-10T03:53:17.716Z,96625.59
2023-05-10T03:56:03.266Z,96625.59
2023-05-10T03:58:48.607Z,96625.59
2023-05-10T04:01:37.131Z,96624.31
2023-05-10T04:04:23.042Z,96634.44
2023-05-10T04:07:10.705Z,96632.59
2023-05-10T04:09:56.402Z,96632.34
2023-05-10T04:12:42.665Z,96633.94
2023-05-10T04:15:28.161Z,96633.69
2023-05-10T04:18:13.685Z,96631.63
2023-05-10T04:20:59.209Z,96626.41
2023-05-10T04:23:44.467Z,96629.19
2023-05-10T04:26:30.005Z,96636.63
2023-05-10T04:29:15.254Z,96636.69
2023-05-10T04:32:00.603Z,96633.34
2023-05-10T04:34:45.974Z,96634.47
2023-05-10T04:37:31.627Z,96640.06
2023-05-10T04:40:17.656Z,96639.63
2023-05-10T04:43:03.074Z,96631.50
2023-05-10T04:45:48.424Z,96634.00
2023-05-10T04:48:34.046Z,96634.06
2023-05-10T04:51:19.724Z,96634.72
2023-05-10T04:54:06.637Z,96636.41
2023-05-10T04:56:52.417Z,96638.06
2023-05-10T04:59:38.675Z,96634.69
2023-05-10T05:02:24.827Z,96637.16
2023-05-10T05:05:10.464Z,96634.38
2023-05-10T05:07:55.893Z,96635.22
2023-05-10T05:10:41.104Z,96649.34
2023-05-10T05:13:26.777Z,96642.28
2023-05-10T05:16:12.681Z,96639.69
2023-05-10T05:18:58.435Z,96642.41
2023-05-10T05:21:44.407Z,96644.06
2023-05-10T05:24:30.134Z,96636.44
2023-05-10T05:27:15.430Z,96650.78
2023-05-10T05:30:00.775Z,96655.34
2023-05-10T05:32:48.101Z,96649.84
2023-05-10T05:35:34.296Z,96652.75
2023-05-10T05:38:19.901Z,96659.19
2023-05-10T05:41:05.259Z,96657.09
2023-05-10T05:43:50.943Z,96651.28
2023-05-10T05:46:36.463Z,96654.50
2023-05-10T05:49:21.871Z,96658.47
2023-05-10T05:52:07.423Z,96659.81
2023-05-10T05:54:53.047Z,96662.81
2023-05-10T05:57:38.761Z,96661.50
2023-05-10T06:00:25.069Z,96662.88
2023-05-10T06:03:10.551Z,96668.72
2023-05-10T06:05:56.451Z,96671.69
2023-05-10T06:08:41.745Z,96671.44
2023-05-10T06:11:27.277Z,96678.66
2023-05-10T06:14:13.115Z,96676.78
2023-05-10T06:17:00.822Z,96688.19
2023-05-10T06:19:46.731Z,96684.75
2023-05-10T06:22:32.291Z,96687.16
2023-05-10T06:25:19.271Z,96689.31
2023-05-10T06:28:05.155Z,96687.50
2023-05-10T06:30:50.514Z,96689.41
2023-05-10T06:33:36.348Z,96696.91
2023-05-10T06:36:22.984Z,96694.56
2023-05-10T06:39:08.609Z,96695.09
2023-05-10T06:41:53.923Z,96701.22
2023-05-10T06:44:39.334Z,96694.78
2023-05-10T06:47:24.855Z,96709.13
2023-05-10T06:50:10.752Z,96706.75
2023-05-10T06:52:56.792Z,96708.66
2023-05-10T06:55:42.556Z,96716.66
2023-05-10T06:58:27.832Z,96705.56
2023-05-10T07:01:13.511Z,96717.53
2023-05-10T07:03:59.444Z,96714.94
2023-05-10T07:06:45.844Z,96717.34
2023-05-10T07:09:31.502Z,96716.28
2023-05-10T07:12:16.907Z,96716.59
2023-05-10T07:15:02.656Z,96720.88
2023-05-10T07:17:48.274Z,96718.53
2023-05-10T07:20:34.387Z,96721.75
2023-05-10T07:23:20.447Z,96725.50
2023-05-10T07:26:06.087Z,96725.28
2023-05-10T07:28:51.565Z,96743.03
2023-05-10T07:31:37.147Z,96735.06
2023-05-10T07:34:22.529Z,96735.13
2023-05-10T07:37:08.468Z,96737.84
2023-05-10T07:39:53.967Z,96743.94
2023-05-10T07:42:39.418Z,96747.94
2023-05-10T07:45:25.226Z,96750.56
2023-05-10T07:48:11.006Z,96751.66
2023-05-10T07:50:56.445Z,96750.06
2023-05-10T07:53:41.770Z,96742.91
2023-05-10T07:56:32.857Z,96754.09
2023-05-10T07:59:18.750Z,96746.66
2023-05-10T08:02:04.234Z,96747.50
2023-05-10T08:04:49.981Z,96750.72
2023-05-10T08:07:35.512Z,96758.13
2023-05-10T08:10:20.992Z,96760.78
2023-05-10T08:13:07.151Z,96760.78
2023-05-10T08:15:54.090Z,96766.66
2023-05-10T08:18:40.284Z,96769.53
2023-05-10T08:21:27.043Z,96765.06
2023-05-10T08:24:12.805Z,96772.47
2023-05-10T08:26:58.370Z,96772.69
2023-05-10T08:29:50.203Z,96773.16
2023-05-10T08:32:36.233Z,96781.94
2023-05-10T08:35:21.855Z,96780.25
2023-05-10T08:38:08.026Z,96789.78
2023-05-10T08:40:57.654Z,96798.28
2023-05-10T08:43:47.303Z,96794.50
2023-05-10T08:46:35.963Z,96797.59
2023-05-10T08:49:22.665Z,96799.16
2023-05-10T08:52:09.306Z,96811.31
2023-05-10T08:54:54.740Z,96798.53
2023-05-10T08:57:40.508Z,96805.66
2023-05-10T09:00:27.961Z,96798.94
2023-05-10T09:03:14.034Z,96801.59
2023-05-10T09:05:59.781Z,96801.59
2023-05-10T09:08:46.900Z,96806.91
2023-05-10T09:11:33.105Z,96805.03
2023-05-10T09:14:19.601Z,96807.69
2023-05-10T09:17:05.687Z,96811.38
2023-05-10T09:19:51.443Z,96810.56
2023-05-10T09:22:37.262Z,96820.94
2023-05-10T09:25:23.717Z,96818.28
2023-05-10T09:28:10.603Z,96826.00
2023-05-10T09:30:56.838Z,96823.91
2023-05-10T09:33:50.150Z,96825.81
2023-05-10T09:36:35.707Z,96822.69
2023-05-10T09:39:21.649Z,96831.75
2023-05-10T09:42:10.089Z,96826.19
2023-05-10T09:45:01.501Z,96836.31
2023-05-10T09:47:47.194Z,96839.47
2023-05-10T09:50:32.781Z,96831.69
2023-05-10T09:53:18.813Z,96832.19
2023-05-10T09:56:04.536Z,96838.28
2023-05-10T09:59:03.685Z,96835.63
2023-05-10T10:01:53.807Z,96837.00
2023-05-10T10:04:42.831Z,96834.66
2023-05-10T10:07:28.901Z,96843.72
2023-05-10T10:10:14.770Z,96847.25
2023-05-10T10:13:00.835Z,96841.16
2023-05-10T10:15:47.907Z,96845.94
2023-05-10T10:18:34.497Z,96844.94
2023-05-10T10:21:21.346Z,96848.16
2023-05-10T10:24:07.511Z,96855.09
2023-05-10T10:26:57.045Z,96846.63
2023-05-10T10:30:10.796Z,96848.47
2023-05-10T10:33:24.372Z,96850.88
2023-05-10T10:36:14.491Z,96843.47
2023-05-10T10:39:02.343Z,96840.81
2023-05-10T10:41:52.259Z,96846.75
2023-05-10T10:44:39.335Z,96846.78
2023-05-10T10:47:34.201Z,96842.53
2023-05-10T10:50:19.949Z,96844.75
2023-05-10T10:53:13.202Z,96850.69
2023-05-10T10:56:14.554Z,96853.13
2023-05-10T10:59:00.826Z,96847.06
2023-05-10T11:01:52.552Z,96845.75
2023-05-10T11:04:47.550Z,96848.22
2023-05-10T11:07:33.124Z,96848.25
2023-05-10T11:10:21.981Z,96852.56
2023-05-10T11:13:09.596Z,96848.91
2023-05-10T11:15:55.673Z,96856.91
2023-05-10T11:18:41.774Z,96846.63
2023-05-10T11:21:27.415Z,96857.03
2023-05-10T11:24:21.031Z,96846.47
2023-05-10T11:27:07.041Z,96846.75
2023-05-10T11:29:53.096Z,96848.13
2023-05-10T11:32:39.656Z,96854.03
2023-05-10T11:35:25.378Z,96855.97
2023-05-10T11:38:12.271Z,96850.66
2023-05-10T11:40:57.535Z,96852.00
2023-05-10T11:43:43.762Z,96855.72
2023-05-10T11:46:29.691Z,96864.56
2023-05-10T11:49:15.348Z,96851.81
2023-05-10T11:52:09.737Z,96858.97
2023-05-10T11:54:56.198Z,96849.38
2023-05-10T11:57:42.874Z,96850.44
2023-05-10T12:00:28.948Z,96857.38
2023-05-10T12:03:14.717Z,96857.38
2023-05-10T12:06:02.097Z,96853.66
2023-05-10T12:08:50.933Z,96854.22
2023-05-10T12:11:44.033Z,96851.28
2023-05-10T12:14:34.256Z,96848.34
2023-05-10T12:17:20.305Z,96855.28
2023-05-10T12:20:20.007Z,96850.22
2023-05-10T12:23:06.533Z,96853.19
2023-05-10T12:25:55.008Z,96847.31
2023-05-10T12:28:40.789Z,96858.53
2023-05-10T12:31:26.465Z,96852.94
2023-05-10T12:34:11.962Z,96858.06
2023-05-10T12:36:57.999Z,96860.22
2023-05-10T12:39:45.849Z,96853.59
2023-05-10T12:42:32.582Z,96855.78
2023-05-10T12:45:19.336Z,96862.97
2023-05-10T12:48:05.127Z,96856.34
2023-05-10T12:50:51.007Z,96858.22
2023-05-10T12:53:37.755Z,96862.50
2023-05-10T12:56:23.474Z,96862.00
2023-05-10T12:59:08.805Z,96863.63
2023-05-10T13:01:54.351Z,96864.19
2023-05-10T13:04:40.831Z,96862.63
2023-05-10T13:07:26.685Z,96865.31
2023-05-10T13:10:12.441Z,96860.00
2023-05-10T13:12:59.098Z,96858.13
2023-05-10T13:15:44.449Z,96858.09
2023-05-10T13:18:30.258Z,96856.78
2023-05-10T13:21:15.963Z,96857.84
2023-05-10T13:24:02.421Z,96859.44
2023-05-10T13:26:48.078Z,96857.59
2023-05-10T13:29:33.531Z,96857.06
2023-05-10T13:32:19.063Z,96857.34
2023-05-10T13:35:05.943Z,96852.00
2023-05-10T13:37:51.702Z,96857.91
2023-05-10T13:40:37.288Z,96857.91
2023-05-10T13:43:22.675Z,96857.91
2023-05-10T13:46:08.373Z,96854.16
2023-05-10T13:48:54.040Z,96853.13
2023-05-10T13:51:39.645Z,96856.84
2023-05-10T13:54:25.487Z,96849.38
2023-05-10T13:57:12.929Z,96855.00
2023-05-10T13:59:58.580Z,96847.25
2023-05-10T14:02:44.704Z,96844.59
2023-05-10T14:05:30.617Z,96841.38
2023-05-10T14:08:16.252Z,96830.72
2023-05-10T14:11:01.422Z,96840.31
2023-05-10T14:13:47.116Z,96838.44
2023-05-10T14:16:32.759Z,96844.56
2023-05-10T14:19:18.510Z,96842.72
2023-05-10T14:22:04.090Z,96838.16
2023-05-10T14:24:49.824Z,96837.09
2023-05-10T14:27:35.572Z,96836.84
2023-05-10T14:30:21.686Z,96828.84
2023-05-10T14:33:06.862Z,96832.56
2023-05-10T14:35:52.519Z,96833.34
2023-05-10T14:38:38.117Z,96825.13
2023-05-10T14:41:25.770Z,96823.22
2023-05-10T14:44:11.577Z,96818.16
2023-05-10T14:46:57.550Z,96824.28
2023-05-10T14:49:43.144Z,96818.69
2023-05-10T14:52:28.745Z,96818.44
2023-05-10T14:55:14.036Z,96821.63
2023-05-10T14:57:59.606Z,96819.78
2023-05-10T15:00:45.600Z,96818.97
2023-05-10T15:03:31.887Z,96821.91
2023-05-10T15:06:18.157Z,96826.44
2023-05-10T15:09:07.230Z,96827.50
2023-05-10T15:11:52.860Z,96821.91
2023-05-10T15:14:38.537Z,96831.75
2023-05-10T15:17:24.338Z,96831.22
2023-05-10T15:20:10.191Z,96821.63
2023-05-10T15:22:56.218Z,96815.47
2023-05-10T15:25:41.926Z,96821.63
2023-05-10T15:28:27.685Z,96825.91
2023-05-10T15:31:13.392Z,96827.47
2023-05-10T15:34:01.930Z,96824.00
2023-05-10T15:36:47.843Z,96824.81
2023-05-10T15:39:33.403Z,96820.03
2023-05-10T15:42:18.926Z,96825.34
2023-05-10T15:45:05.145Z,96826.41
2023-05-10T15:47:50.631Z,96828.56
2023-05-10T15:50:36.456Z,96830.69
2023-05-10T15:53:22.023Z,96832.53
2023-05-10T15:56:07.717Z,96831.22
2023-05-10T15:58:53.381Z,96821.06
2023-05-10T16:01:38.969Z,96826.69
2023-05-10T16:04:24.612Z,96828.28
2023-05-10T16:07:09.988Z,96835.78
2023-05-10T16:09:55.523Z,96834.69
2023-05-10T16:12:41.393Z,96829.34
2023-05-10T16:15:27.427Z,96827.22
2023-05-10T16:18:13.374Z,96834.41
2023-05-10T16:20:59.389Z,96837.06
2023-05-10T16:23:46.499Z,96832.28
2023-05-10T16:26:32.370Z,96833.34
2023-05-10T16:29:17.746Z,96834.97
2023-05-10T16:32:03.570Z,96833.91
2023-05-10T16:34:50.301Z,96833.91
2023-05-10T16:37:36.046Z,96830.16
2023-05-10T16:40:22.166Z,96834.41
2023-05-10T16:43:07.969Z,96838.13
2023-05-10T16:45:53.420Z,96837.59
2023-05-10T16:48:39.042Z,96844.00
2023-05-10T16:51:24.233Z,96846.13
2023-05-10T16:54:09.865Z,96841.84
2023-05-10T16:56:55.231Z,96835.97
2023-05-10T16:59:40.868Z,96843.19
2023-05-10T17:02:26.854Z,96846.63
2023-05-10T17:05:12.274Z,96848.78
2023-05-10T17:07:58.136Z,96843.94
2023-05-10T17:10:44.131Z,96843.41
2023-05-10T17:13:30.454Z,96846.31
2023-05-10T17:16:16.087Z,96852.19
2023-05-10T17:19:02.310Z,96841.75
2023-05-10T17:21:48.200Z,96853.50
2023-05-10T17:24:33.822Z,96860.16
2023-05-10T17:27:19.271Z,96853.47
2023-05-10T17:30:05.296Z,96856.41
2023-05-10T17:32:51.298Z,96848.66
2023-05-10T17:35:37.049Z,96859.34
2023-05-10T17:38:22.863Z,96861.44
2023-05-10T17:41:08.307Z,96863.59
2023-05-10T17:43:54.666Z,96860.94
2023-05-10T17:46:40.152Z,96861.16
2023-05-10T17:49:25.698Z,96864.09
2023-05-10T17:52:11.788Z,96860.63
2023-05-10T17:54:57.470Z,96864.59
2023-05-10T17:57:43.218Z,96862.19
2023-05-10T18:00:28.765Z,96865.13
2023-05-10T18:03:14.145Z,96861.91
2023-05-10T18:05:59.760Z,96860.84
2023-05-10T18:08:45.407Z,96868.28
2023-05-10T18:11:31.186Z,96873.59
2023-05-10T18:14:28.283Z,96879.41
2023-05-10T18:17:21.876Z,96880.22
2023-05-10T18:20:08.361Z,96874.59
2023-05-10T18:22:55.190Z,96882.03
2023-05-10T18:25:40.508Z,96880.97
2023-05-10T18:28:26.310Z,96886.78
2023-05-10T18:31:12.665Z,96888.88
2023-05-10T18:33:58.009Z,96891.28
2023-05-10T18:36:43.874Z,96885.69
2023-05-10T18:39:29.838Z,96886.44
2023-05-10T18:42:16.144Z,96885.09
2023-05-10T18:45:01.611Z,96887.47
2023-05-10T18:47:47.279Z,96884.25
2023-05-10T18:50:32.830Z,96882.09
2023-05-10T18:53:18.425Z,96898.31
2023-05-10T18:56:04.347Z,96898.00
2023-05-10T18:58:50.041Z,96896.66
2023-05-10T19:01:35.474Z,96899.59
2023-05-10T19:04:21.170Z,96905.19
2023-05-10T19:07:07.016Z,96901.16
2023-05-10T19:09:52.577Z,96908.59
2023-05-10T19:12:38.180Z,96908.84
2023-05-10T19:15:23.739Z,96911.22
2023-05-10T19:18:10.041Z,96914.09
2023-05-10T19:20:56.648Z,96913.56
2023-05-10T19:23:43.163Z,96915.41
2023-05-10T19:26:28.893Z,96918.34
2023-05-10T19:29:14.695Z,96914.06
2023-05-10T19:32:00.816Z,96914.34
2023-05-10T19:34:46.784Z,96917.25
2023-05-10T19:37:32.326Z,96922.81
2023-05-10T19:40:18.652Z,96915.34
2023-05-10T19:43:04.515Z,96922.75
2023-05-10T19:45:49.753Z,96917.44
2023-05-10T19:48:35.140Z,96920.38
2023-05-10T19:51:20.731Z,96914.25
2023-05-10T19:54:06.583Z,96918.44
2023-05-10T19:56:52.114Z,96913.41
2023-05-10T19:59:37.808Z,96915.25
2023-05-10T20:02:23.536Z,96910.44
2023-05-10T20:05:09.216Z,96908.00
2023-05-10T20:07:54.980Z,96907.69
2023-05-10T20:10:40.626Z,96911.66
2023-05-10T20:13:26.367Z,96911.09
2023-05-10T20:16:12.272Z,96913.47
2023-05-10T20:18:57.958Z,96911.31
2023-05-10T20:21:44.006Z,96916.63
2023-05-10T20:24:29.599Z,96921.13
2023-05-10T20:27:15.005Z,96920.34
2023-05-10T20:30:00.505Z,96919.00
2023-05-10T20:32:45.787Z,96914.69
2023-05-10T20:35:33.051Z,96908.50
2023-05-10T20:38:18.696Z,96908.97
2023-05-10T20:41:03.941Z,96909.22
2023-05-10T20:43:49.430Z,96906.28
2023-05-10T20:46:35.131Z,96907.31
2023-05-10T20:49:21.216Z,96911.28
2023-05-10T20:52:07.410Z,96919.50
2023-05-10T20:54:53.125Z,96910.91
2023-05-10T20:57:39.055Z,96919.88
2023-05-10T21:00:24.667Z,96915.88
2023-05-10T21:03:10.215Z,96905.50
2023-05-10T21:05:55.780Z,96901.22
2023-05-10T21:08:41.036Z,96909.44
2023-05-10T21:11:26.805Z,96907.75
2023-05-10T21:14:12.588Z,96908.53
2023-05-10T21:16:57.945Z,96898.88
2023-05-10T21:19:43.448Z,96902.59
2023-05-10T21:22:28.947Z,96906.03
2023-05-10T21:25:14.359Z,96904.19
2023-05-10T21:28:00.294Z,96909.25
2023-05-10T21:30:46.420Z,96911.66
2023-05-10T21:33:32.059Z,96907.94
2023-05-10T21:36:17.384Z,96901.34
2023-05-10T21:39:03.431Z,96908.25
2023-05-10T21:41:49.141Z,96904.00
2023-05-10T21:44:34.878Z,96900.28
2023-05-10T21:47:20.718Z,96905.59
2023-05-10T21:50:06.790Z,96898.69
2023-05-10T21:52:52.204Z,96903.22
2023-05-10T21:55:37.684Z,96908.75
2023-05-10T21:58:23.291Z,96902.91
2023-05-10T22:01:09.059Z,96906.59
2023-05-10T22:03:54.424Z,96900.25
2023-05-10T22:06:39.966Z,96904.50
2023-05-10T22:09:25.541Z,96904.50
2023-05-10T22:12:12.088Z,96903.44
2023-05-10T22:15:09.443Z,96903.22
2023-05-10T22:17:56.472Z,96909.31
2023-05-10T22:20:45.016Z,96913.56
2023-05-10T22:23:30.857Z,96908.00
2023-05-10T22:26:16.605Z,96913.31
2023-05-10T22:29:03.099Z,96912.53
2023-05-10T22:31:48.696Z,96917.84
2023-05-10T22:34:35.397Z,96918.88
2023-05-10T22:37:21.302Z,96915.44
2023-05-10T22:40:07.901Z,96907.22
2023-05-10T22:42:53.585Z,96916.53
2023-05-10T22:45:39.422Z,96910.19
2023-05-10T22:48:25.082Z,96904.88
2023-05-10T22:51:10.615Z,96903.81
2023-05-10T22:53:56.197Z,96909.94
2023-05-10T22:56:41.502Z,96914.19
2023-05-10T22:59:28.620Z,96913.16
2023-05-10T23:02:15.414Z,96907.84
2023-05-10T23:05:01.026Z,96909.69
2023-05-10T23:07:52.834Z,96916.59
2023-05-10T23:10:39.233Z,96915.81
2023-05-10T23:13:24.862Z,96912.09
2023-05-10T23:16:10.600Z,96916.34
2023-05-10T23:18:56.627Z,96920.06
2023-05-10T23:21:42.311Z,96917.41
2023-05-10T23:24:28.051Z,96918.47
2023-05-10T23:27:14.678Z,96919.81
2023-05-10T23:29:59.980Z,96925.94
2023-05-10T23:32:45.662Z,96916.91
2023-05-10T23:35:31.460Z,96917.69
2023-05-10T23:38:17.478Z,96922.78
2023-05-10T23:41:03.367Z,96921.75
2023-05-10T23:43:49.244Z,96911.91
2023-05-10T23:46:35.148Z,96916.19
2023-05-10T23:49:20.556Z,96910.59
2023-05-10T23:52:05.922Z,96912.47
2023-05-10T23:54:51.830Z,96909.56
2023-05-10T23:57:37.258Z,96904.25
